sensor_id;sensor_type;location;lat;lon;timestamp;P1;durP1;ratioP1;P2;durP2;ratioP2
3667;SDS011;24099;47.102;15.440;2023-04-01T00:00:23;0.60;;;0.60;;
3667;SDS011;24099;47.102;15.440;2023-04-01T00:02:57;0.55;;;0.55;;
3667;SDS011;24099;47.102;15.440;2023-04-01T00:05:27;1.40;;;0.80;;
3667;SDS011;24099;47.102;15.440;2023-04-01T00:07:55;0.50;;;0.50;;
3667;SDS011;24099;47.102;15.440;2023-04-01T00:10:24;0.40;;;0.40;;
3667;SDS011;24099;47.102;15.440;2023-04-01T00:12:52;0.50;;;0.50;;
3667;SDS011;24099;47.102;15.440;2023-04-01T00:15:20;0.52;;;0.52;;
3667;SDS011;24099;47.102;15.440;2023-04-01T00:17:47;3.10;;;0.73;;
3667;SDS011;24099;47.102;15.440;2023-04-01T00:20:15;0.60;;;0.60;;
3667;SDS011;24099;47.102;15.440;2023-04-01T00:22:46;0.55;;;0.55;;
3667;SDS011;24099;47.102;15.440;2023-04-01T00:25:15;0.93;;;0.70;;
3667;SDS011;24099;47.102;15.440;2023-04-01T00:27:45;0.60;;;0.55;;
3667;SDS011;24099;47.102;15.440;2023-04-01T00:30:13;0.85;;;0.75;;
3667;SDS011;24099;47.102;15.440;2023-04-01T00:32:41;2.30;;;0.60;;
3667;SDS011;24099;47.102;15.440;2023-04-01T00:35:09;0.45;;;0.43;;
3667;SDS011;24099;47.102;15.440;2023-04-01T00:37:38;0.73;;;0.73;;
3667;SDS011;24099;47.102;15.440;2023-04-01T00:40:06;0.85;;;0.57;;
3667;SDS011;24099;47.102;15.440;2023-04-01T00:42:48;1.23;;;0.80;;
3667;SDS011;24099;47.102;15.440;2023-04-01T00:45:27;0.47;;;0.47;;
3667;SDS011;24099;47.102;15.440;2023-04-01T00:48:02;0.80;;;0.80;;
3667;SDS011;24099;47.102;15.440;2023-04-01T00:50:36;1.52;;;1.00;;
3667;SDS011;24099;47.102;15.440;2023-04-01T00:53:06;0.40;;;0.40;;
3667;SDS011;24099;47.102;15.440;2023-04-01T00:55:35;0.95;;;0.77;;
3667;SDS011;24099;47.102;15.440;2023-04-01T00:58:11;0.60;;;0.60;;
3667;SDS011;24099;47.102;15.440;2023-04-01T01:00:43;1.20;;;0.70;;
3667;SDS011;24099;47.102;15.440;2023-04-01T01:03:13;0.52;;;0.52;;
3667;SDS011;24099;47.102;15.440;2023-04-01T01:05:49;0.77;;;0.60;;
3667;SDS011;24099;47.102;15.440;2023-04-01T01:08:33;0.70;;;0.70;;
3667;SDS011;24099;47.102;15.440;2023-04-01T01:11:14;0.60;;;0.60;;
3667;SDS011;24099;47.102;15.440;2023-04-01T01:13:52;0.77;;;0.77;;
3667;SDS011;24099;47.102;15.440;2023-04-01T01:16:29;0.50;;;0.50;;
3667;SDS011;24099;47.102;15.440;2023-04-01T01:19:05;0.85;;;0.40;;
3667;SDS011;24099;47.102;15.440;2023-04-01T01:22:01;0.70;;;0.70;;
3667;SDS011;24099;47.102;15.440;2023-04-01T01:24:51;2.08;;;0.70;;
3667;SDS011;24099;47.102;15.440;2023-04-01T01:27:31;0.70;;;0.70;;
3667;SDS011;24099;47.102;15.440;2023-04-01T01:30:12;1.42;;;0.80;;
3667;SDS011;24099;47.102;15.440;2023-04-01T01:36:06;1.17;;;1.00;;
3667;SDS011;24099;47.102;15.440;2023-04-01T01:38:39;0.73;;;0.70;;
3667;SDS011;24099;47.102;15.440;2023-04-01T01:41:08;0.60;;;0.60;;
3667;SDS011;24099;47.102;15.440;2023-04-01T01:43:40;0.70;;;0.70;;
3667;SDS011;24099;47.102;15.440;2023-04-01T01:46:14;0.73;;;0.70;;
3667;SDS011;24099;47.102;15.440;2023-04-01T01:48:49;0.73;;;0.73;;
3667;SDS011;24099;47.102;15.440;2023-04-01T01:51:20;0.60;;;0.60;;
3667;SDS011;24099;47.102;15.440;2023-04-01T01:53:49;3.17;;;0.93;;
3667;SDS011;24099;47.102;15.440;2023-04-01T01:56:19;1.02;;;0.65;;
3667;SDS011;24099;47.102;15.440;2023-04-01T01:58:54;1.30;;;0.82;;
3667;SDS011;24099;47.102;15.440;2023-04-01T02:01:27;1.35;;;0.80;;
3667;SDS011;24099;47.102;15.440;2023-04-01T02:04:06;0.60;;;0.60;;
3667;SDS011;24099;47.102;15.440;2023-04-01T02:06:38;1.48;;;1.00;;
3667;SDS011;24099;47.102;15.440;2023-04-01T02:09:09;1.77;;;0.80;;
3667;SDS011;24099;47.102;15.440;2023-04-01T02:11:39;1.17;;;0.90;;
3667;SDS011;24099;47.102;15.440;2023-04-01T02:14:13;0.77;;;0.60;;
3667;SDS011;24099;47.102;15.440;2023-04-01T02:16:45;1.10;;;0.93;;
3667;SDS011;24099;47.102;15.440;2023-04-01T02:19:18;0.60;;;0.60;;
3667;SDS011;24099;47.102;15.440;2023-04-01T02:21:50;0.50;;;0.50;;
3667;SDS011;24099;47.102;15.440;2023-04-01T02:24:23;0.65;;;0.65;;
3667;SDS011;24099;47.102;15.440;2023-04-01T02:26:54;0.60;;;0.60;;
3667;SDS011;24099;47.102;15.440;2023-04-01T02:29:23;0.77;;;0.77;;
3667;SDS011;24099;47.102;15.440;2023-04-01T02:31:54;0.70;;;0.70;;
3667;SDS011;24099;47.102;15.440;2023-04-01T02:34:23;0.95;;;0.55;;
3667;SDS011;24099;47.102;15.440;2023-04-01T02:36:53;1.05;;;0.70;;
3667;SDS011;24099;47.102;15.440;2023-04-01T02:39:26;1.00;;;0.60;;
3667;SDS011;24099;47.102;15.440;2023-04-01T02:41:57;0.75;;;0.60;;
3667;SDS011;24099;47.102;15.440;2023-04-01T02:44:26;0.85;;;0.75;;
3667;SDS011;24099;47.102;15.440;2023-04-01T02:46:56;0.85;;;0.85;;
3667;SDS011;24099;47.102;15.440;2023-04-01T02:49:24;0.50;;;0.50;;
3667;SDS011;24099;47.102;15.440;2023-04-01T02:51:51;0.65;;;0.47;;
3667;SDS011;24099;47.102;15.440;2023-04-01T02:54:22;0.60;;;0.60;;
3667;SDS011;24099;47.102;15.440;2023-04-01T02:56:50;0.75;;;0.75;;
3667;SDS011;24099;47.102;15.440;2023-04-01T02:59:19;0.60;;;0.55;;
3667;SDS011;24099;47.102;15.440;2023-04-01T03:01:46;0.80;;;0.80;;
3667;SDS011;24099;47.102;15.440;2023-04-01T03:04:14;0.40;;;0.40;;
3667;SDS011;24099;47.102;15.440;2023-04-01T03:06:42;1.13;;;0.80;;
3667;SDS011;24099;47.102;15.440;2023-04-01T03:09:11;0.63;;;0.63;;
3667;SDS011;24099;47.102;15.440;2023-04-01T03:11:39;1.08;;;0.60;;
3667;SDS011;24099;47.102;15.440;2023-04-01T03:14:08;1.10;;;0.85;;
3667;SDS011;24099;47.102;15.440;2023-04-01T03:16:40;0.90;;;0.90;;
3667;SDS011;24099;47.102;15.440;2023-04-01T03:19:07;0.60;;;0.60;;
3667;SDS011;24099;47.102;15.440;2023-04-01T03:21:35;0.57;;;0.57;;
3667;SDS011;24099;47.102;15.440;2023-04-01T03:24:03;0.70;;;0.70;;
3667;SDS011;24099;47.102;15.440;2023-04-01T03:26:36;2.40;;;0.70;;
3667;SDS011;24099;47.102;15.440;2023-04-01T03:29:04;0.40;;;0.40;;
3667;SDS011;24099;47.102;15.440;2023-04-01T03:31:32;0.60;;;0.60;;
3667;SDS011;24099;47.102;15.440;2023-04-01T03:33:59;0.35;;;0.35;;
3667;SDS011;24099;47.102;15.440;2023-04-01T03:36:27;0.40;;;0.40;;
3667;SDS011;24099;47.102;15.440;2023-04-01T03:38:55;0.60;;;0.60;;
3667;SDS011;24099;47.102;15.440;2023-04-01T03:41:36;0.50;;;0.50;;
3667;SDS011;24099;47.102;15.440;2023-04-01T03:44:04;0.75;;;0.50;;
3667;SDS011;24099;47.102;15.440;2023-04-01T03:46:36;1.30;;;1.20;;
3667;SDS011;24099;47.102;15.440;2023-04-01T03:49:06;1.23;;;0.95;;
3667;SDS011;24099;47.102;15.440;2023-04-01T03:51:37;0.63;;;0.52;;
3667;SDS011;24099;47.102;15.440;2023-04-01T03:54:09;0.65;;;0.50;;
3667;SDS011;24099;47.102;15.440;2023-04-01T03:56:41;0.63;;;0.43;;
3667;SDS011;24099;47.102;15.440;2023-04-01T03:59:10;0.75;;;0.75;;
3667;SDS011;24099;47.102;15.440;2023-04-01T04:01:38;0.80;;;0.80;;
3667;SDS011;24099;47.102;15.440;2023-04-01T04:04:06;0.75;;;0.75;;
3667;SDS011;24099;47.102;15.440;2023-04-01T04:06:38;0.50;;;0.50;;
3667;SDS011;24099;47.102;15.440;2023-04-01T04:09:06;0.73;;;0.73;;
3667;SDS011;24099;47.102;15.440;2023-04-01T04:11:34;0.75;;;0.70;;
3667;SDS011;24099;47.102;15.440;2023-04-01T04:14:03;0.77;;;0.77;;
3667;SDS011;24099;47.102;15.440;2023-04-01T04:16:31;0.80;;;0.80;;
3667;SDS011;24099;47.102;15.440;2023-04-01T04:19:01;1.30;;;0.80;;
3667;SDS011;24099;47.102;15.440;2023-04-01T04:21:29;0.75;;;0.75;;
3667;SDS011;24099;47.102;15.440;2023-04-01T04:23:58;0.80;;;0.80;;
3667;SDS011;24099;47.102;15.440;2023-04-01T04:26:32;0.82;;;0.82;;
3667;SDS011;24099;47.102;15.440;2023-04-01T04:29:05;2.33;;;0.75;;
3667;SDS011;24099;47.102;15.440;2023-04-01T04:31:33;3.60;;;0.75;;
3667;SDS011;24099;47.102;15.440;2023-04-01T04:34:01;2.05;;;1.17;;
3667;SDS011;24099;47.102;15.440;2023-04-01T04:36:34;7.93;;;0.85;;
3667;SDS011;24099;47.102;15.440;2023-04-01T04:39:02;0.93;;;0.93;;
3667;SDS011;24099;47.102;15.440;2023-04-01T04:41:32;1.13;;;0.50;;
3667;SDS011;24099;47.102;15.440;2023-04-01T04:44:02;0.82;;;0.82;;
3667;SDS011;24099;47.102;15.440;2023-04-01T04:46:32;1.15;;;0.68;;
3667;SDS011;24099;47.102;15.440;2023-04-01T04:49:11;0.77;;;0.52;;
3667;SDS011;24099;47.102;15.440;2023-04-01T04:51:40;0.70;;;0.70;;
3667;SDS011;24099;47.102;15.440;2023-04-01T04:54:09;2.30;;;1.40;;
3667;SDS011;24099;47.102;15.440;2023-04-01T04:57:06;1.13;;;0.90;;
3667;SDS011;24099;47.102;15.440;2023-04-01T04:59:41;0.70;;;0.68;;
3667;SDS011;24099;47.102;15.440;2023-04-01T05:02:25;1.08;;;0.80;;
3667;SDS011;24099;47.102;15.440;2023-04-01T05:04:57;0.75;;;0.75;;
3667;SDS011;24099;47.102;15.440;2023-04-01T05:07:26;0.60;;;0.60;;
3667;SDS011;24099;47.102;15.440;2023-04-01T05:09:55;0.75;;;0.75;;
3667;SDS011;24099;47.102;15.440;2023-04-01T05:12:24;0.85;;;0.50;;
3667;SDS011;24099;47.102;15.440;2023-04-01T05:14:57;1.30;;;1.13;;
3667;SDS011;24099;47.102;15.440;2023-04-01T05:17:27;0.80;;;0.80;;
3667;SDS011;24099;47.102;15.440;2023-04-01T05:19:56;0.93;;;0.88;;
3667;SDS011;24099;47.102;15.440;2023-04-01T05:22:25;0.65;;;0.65;;
3667;SDS011;24099;47.102;15.440;2023-04-01T05:24:58;0.70;;;0.70;;
3667;SDS011;24099;47.102;15.440;2023-04-01T05:27:28;1.15;;;0.82;;
3667;SDS011;24099;47.102;15.440;2023-04-01T05:29:56;0.65;;;0.65;;
3667;SDS011;24099;47.102;15.440;2023-04-01T05:32:39;1.00;;;0.90;;
3667;SDS011;24099;47.102;15.440;2023-04-01T05:35:08;0.95;;;0.52;;
3667;SDS011;24099;47.102;15.440;2023-04-01T05:37:50;0.80;;;0.65;;
3667;SDS011;24099;47.102;15.440;2023-04-01T05:40:19;2.05;;;1.00;;
3667;SDS011;24099;47.102;15.440;2023-04-01T05:42:48;1.17;;;1.08;;
3667;SDS011;24099;47.102;15.440;2023-04-01T05:45:16;0.88;;;0.80;;
3667;SDS011;24099;47.102;15.440;2023-04-01T05:48:18;0.52;;;0.52;;
3667;SDS011;24099;47.102;15.440;2023-04-01T05:50:49;2.35;;;1.05;;
3667;SDS011;24099;47.102;15.440;2023-04-01T05:53:16;0.90;;;0.90;;
3667;SDS011;24099;47.102;15.440;2023-04-01T05:55:44;1.08;;;0.75;;
3667;SDS011;24099;47.102;15.440;2023-04-01T05:58:15;1.63;;;0.80;;
3667;SDS011;24099;47.102;15.440;2023-04-01T06:00:46;0.70;;;0.70;;
3667;SDS011;24099;47.102;15.440;2023-04-01T06:03:18;1.05;;;0.98;;
3667;SDS011;24099;47.102;15.440;2023-04-01T06:05:47;0.70;;;0.70;;
3667;SDS011;24099;47.102;15.440;2023-04-01T06:08:17;1.88;;;0.70;;
3667;SDS011;24099;47.102;15.440;2023-04-01T06:10:53;1.02;;;0.60;;
3667;SDS011;24099;47.102;15.440;2023-04-01T06:13:38;1.00;;;0.80;;
3667;SDS011;24099;47.102;15.440;2023-04-01T06:16:31;1.13;;;0.80;;
3667;SDS011;24099;47.102;15.440;2023-04-01T06:19:24;0.60;;;0.60;;
3667;SDS011;24099;47.102;15.440;2023-04-01T06:31:05;0.68;;;0.68;;
3667;SDS011;24099;47.102;15.440;2023-04-01T06:33:46;0.80;;;0.80;;
3667;SDS011;24099;47.102;15.440;2023-04-01T06:36:32;0.88;;;0.85;;
3667;SDS011;24099;47.102;15.440;2023-04-01T06:39:34;1.05;;;1.00;;
3667;SDS011;24099;47.102;15.440;2023-04-01T06:42:24;0.80;;;0.80;;
3667;SDS011;24099;47.102;15.440;2023-04-01T06:45:18;0.88;;;0.85;;
3667;SDS011;24099;47.102;15.440;2023-04-01T06:48:23;0.65;;;0.65;;
3667;SDS011;24099;47.102;15.440;2023-04-01T06:51:41;0.80;;;0.80;;
3667;SDS011;24099;47.102;15.440;2023-04-01T06:54:39;0.80;;;0.80;;
3667;SDS011;24099;47.102;15.440;2023-04-01T06:57:49;3.40;;;0.90;;
3667;SDS011;24099;47.102;15.440;2023-04-01T07:00:24;1.33;;;1.05;;
3667;SDS011;24099;47.102;15.440;2023-04-01T07:02:59;0.88;;;0.70;;
3667;SDS011;24099;47.102;15.440;2023-04-01T07:05:35;1.52;;;0.90;;
3667;SDS011;24099;47.102;15.440;2023-04-01T07:08:05;0.98;;;0.80;;
3667;SDS011;24099;47.102;15.440;2023-04-01T07:10:41;0.32;;;0.32;;
3667;SDS011;24099;47.102;15.440;2023-04-01T07:13:32;0.88;;;0.82;;
3667;SDS011;24099;47.102;15.440;2023-04-01T07:16:17;0.50;;;0.50;;
3667;SDS011;24099;47.102;15.440;2023-04-01T07:18:52;1.10;;;1.00;;
3667;SDS011;24099;47.102;15.440;2023-04-01T07:21:52;0.60;;;0.60;;
3667;SDS011;24099;47.102;15.440;2023-04-01T07:24:42;1.33;;;1.02;;
3667;SDS011;24099;47.102;15.440;2023-04-01T07:27:14;1.65;;;0.75;;
3667;SDS011;24099;47.102;15.440;2023-04-01T07:29:46;0.73;;;0.70;;
3667;SDS011;24099;47.102;15.440;2023-04-01T07:32:16;0.82;;;0.82;;
3667;SDS011;24099;47.102;15.440;2023-04-01T07:35:00;0.60;;;0.60;;
3667;SDS011;24099;47.102;15.440;2023-04-01T07:37:40;4.97;;;0.77;;
3667;SDS011;24099;47.102;15.440;2023-04-01T07:40:21;0.73;;;0.50;;
3667;SDS011;24099;47.102;15.440;2023-04-01T07:43:01;0.60;;;0.47;;
3667;SDS011;24099;47.102;15.440;2023-04-01T07:45:51;1.92;;;0.52;;
3667;SDS011;24099;47.102;15.440;2023-04-01T07:48:28;0.63;;;0.52;;
3667;SDS011;24099;47.102;15.440;2023-04-01T07:51:06;0.68;;;0.47;;
3667;SDS011;24099;47.102;15.440;2023-04-01T07:53:43;0.50;;;0.50;;
3667;SDS011;24099;47.102;15.440;2023-04-01T07:56:18;0.40;;;0.40;;
3667;SDS011;24099;47.102;15.440;2023-04-01T08:01:51;0.40;;;0.40;;
3667;SDS011;24099;47.102;15.440;2023-04-01T08:04:33;0.60;;;0.60;;
3667;SDS011;24099;47.102;15.440;2023-04-01T08:07:12;3.22;;;0.63;;
3667;SDS011;24099;47.102;15.440;2023-04-01T08:10:04;3.75;;;0.65;;
3667;SDS011;24099;47.102;15.440;2023-04-01T08:13:01;0.60;;;0.60;;
3667;SDS011;24099;47.102;15.440;2023-04-01T08:16:05;0.50;;;0.50;;
3667;SDS011;24099;47.102;15.440;2023-04-01T08:18:51;3.72;;;0.57;;
3667;SDS011;24099;47.102;15.440;2023-04-01T08:21:28;0.80;;;0.60;;
3667;SDS011;24099;47.102;15.440;2023-04-01T08:24:00;0.57;;;0.40;;
3667;SDS011;24099;47.102;15.440;2023-04-01T08:26:37;0.40;;;0.40;;
3667;SDS011;24099;47.102;15.440;2023-04-01T08:29:12;0.40;;;0.40;;
3667;SDS011;24099;47.102;15.440;2023-04-01T08:31:45;0.40;;;0.35;;
3667;SDS011;24099;47.102;15.440;2023-04-01T08:34:19;0.40;;;0.30;;
3667;SDS011;24099;47.102;15.440;2023-04-01T08:36:57;0.90;;;0.50;;
3667;SDS011;24099;47.102;15.440;2023-04-01T08:39:41;1.08;;;0.47;;
3667;SDS011;24099;47.102;15.440;2023-04-01T08:45:27;0.40;;;0.40;;
3667;SDS011;24099;47.102;15.440;2023-04-01T08:48:08;0.88;;;0.40;;
3667;SDS011;24099;47.102;15.440;2023-04-01T08:50:54;0.45;;;0.30;;
3667;SDS011;24099;47.102;15.440;2023-04-01T08:53:57;0.50;;;0.50;;
3667;SDS011;24099;47.102;15.440;2023-04-01T08:56:41;0.45;;;0.45;;
3667;SDS011;24099;47.102;15.440;2023-04-01T08:59:27;0.82;;;0.52;;
3667;SDS011;24099;47.102;15.440;2023-04-01T09:02:38;0.55;;;0.55;;
3667;SDS011;24099;47.102;15.440;2023-04-01T09:05:46;1.02;;;0.60;;
3667;SDS011;24099;47.102;15.440;2023-04-01T09:08:52;0.50;;;0.43;;
3667;SDS011;24099;47.102;15.440;2023-04-01T09:12:14;0.55;;;0.55;;
3667;SDS011;24099;47.102;15.440;2023-04-01T09:20:56;1.38;;;0.80;;
3667;SDS011;24099;47.102;15.440;2023-04-01T09:23:55;0.47;;;0.47;;
3667;SDS011;24099;47.102;15.440;2023-04-01T09:26:44;3.33;;;0.70;;
3667;SDS011;24099;47.102;15.440;2023-04-01T09:29:30;0.88;;;0.50;;
3667;SDS011;24099;47.102;15.440;2023-04-01T09:32:33;0.85;;;0.60;;
3667;SDS011;24099;47.102;15.440;2023-04-01T09:35:26;0.45;;;0.30;;
3667;SDS011;24099;47.102;15.440;2023-04-01T09:38:09;0.30;;;0.30;;
3667;SDS011;24099;47.102;15.440;2023-04-01T09:40:54;0.38;;;0.38;;
3667;SDS011;24099;47.102;15.440;2023-04-01T09:43:44;0.50;;;0.45;;
3667;SDS011;24099;47.102;15.440;2023-04-01T09:46:31;3.05;;;0.40;;
3667;SDS011;24099;47.102;15.440;2023-04-01T09:52:13;0.22;;;0.22;;
3667;SDS011;24099;47.102;15.440;2023-04-01T09:55:17;1.27;;;0.47;;
3667;SDS011;24099;47.102;15.440;2023-04-01T10:05:08;0.35;;;0.35;;
3667;SDS011;24099;47.102;15.440;2023-04-01T10:11:24;0.30;;;0.22;;
3667;SDS011;24099;47.102;15.440;2023-04-01T10:14:30;0.20;;;0.20;;
3667;SDS011;24099;47.102;15.440;2023-04-01T10:17:31;0.40;;;0.40;;
3667;SDS011;24099;47.102;15.440;2023-04-01T10:20:37;0.93;;;0.60;;
3667;SDS011;24099;47.102;15.440;2023-04-01T10:36:53;0.73;;;0.52;;
3667;SDS011;24099;47.102;15.440;2023-04-01T10:43:22;0.10;;;0.10;;
3667;SDS011;24099;47.102;15.440;2023-04-01T10:46:42;0.10;;;0.10;;
3667;SDS011;24099;47.102;15.440;2023-04-01T10:49:39;0.30;;;0.15;;
3667;SDS011;24099;47.102;15.440;2023-04-01T10:52:35;0.10;;;0.10;;
3667;SDS011;24099;47.102;15.440;2023-04-01T10:55:48;0.10;;;0.10;;
3667;SDS011;24099;47.102;15.440;2023-04-01T10:59:23;0.13;;;0.13;;
3667;SDS011;24099;47.102;15.440;2023-04-01T11:24:59;0.40;;;0.13;;
3667;SDS011;24099;47.102;15.440;2023-04-01T11:28:02;0.60;;;0.13;;
3667;SDS011;24099;47.102;15.440;2023-04-01T11:30:56;0.10;;;0.10;;
3667;SDS011;24099;47.102;15.440;2023-04-01T11:33:40;0.10;;;0.10;;
3667;SDS011;24099;47.102;15.440;2023-04-01T11:36:17;0.10;;;0.10;;
3667;SDS011;24099;47.102;15.440;2023-04-01T11:39:01;1.25;;;0.40;;
3667;SDS011;24099;47.102;15.440;2023-04-01T11:42:09;0.25;;;0.15;;
3667;SDS011;24099;47.102;15.440;2023-04-01T11:45:08;0.20;;;0.20;;
3667;SDS011;24099;47.102;15.440;2023-04-01T11:47:48;0.10;;;0.10;;
3667;SDS011;24099;47.102;15.440;2023-04-01T11:50:32;0.20;;;0.20;;
3667;SDS011;24099;47.102;15.440;2023-04-01T11:53:15;0.60;;;0.25;;
3667;SDS011;24099;47.102;15.440;2023-04-01T12:01:47;0.00;;;0.00;;
3667;SDS011;24099;47.102;15.440;2023-04-01T12:04:27;0.10;;;0.10;;
3667;SDS011;24099;47.102;15.440;2023-04-01T12:07:23;0.00;;;0.00;;
3667;SDS011;24099;47.102;15.440;2023-04-01T12:12:45;0.13;;;0.13;;
3667;SDS011;24099;47.102;15.440;2023-04-01T12:15:20;0.20;;;0.20;;
3667;SDS011;24099;47.102;15.440;2023-04-01T12:17:54;0.10;;;0.10;;
3667;SDS011;24099;47.102;15.440;2023-04-01T12:20:36;0.10;;;0.10;;
3667;SDS011;24099;47.102;15.440;2023-04-01T12:23:22;0.10;;;0.10;;
3667;SDS011;24099;47.102;15.440;2023-04-01T12:26:19;0.20;;;0.20;;
3667;SDS011;24099;47.102;15.440;2023-04-01T12:29:06;0.20;;;0.10;;
3667;SDS011;24099;47.102;15.440;2023-04-01T12:31:47;0.10;;;0.10;;
3667;SDS011;24099;47.102;15.440;2023-04-01T12:37:29;0.30;;;0.15;;
3667;SDS011;24099;47.102;15.440;2023-04-01T12:46:09;0.10;;;0.10;;
3667;SDS011;24099;47.102;15.440;2023-04-01T12:48:47;0.10;;;0.10;;
3667;SDS011;24099;47.102;15.440;2023-04-01T12:57:42;0.17;;;0.17;;
3667;SDS011;24099;47.102;15.440;2023-04-01T13:00:38;0.10;;;0.10;;
3667;SDS011;24099;47.102;15.440;2023-04-01T13:03:19;0.10;;;0.10;;
3667;SDS011;24099;47.102;15.440;2023-04-01T13:08:55;2.55;;;0.25;;
3667;SDS011;24099;47.102;15.440;2023-04-01T13:11:35;0.40;;;0.10;;
3667;SDS011;24099;47.102;15.440;2023-04-01T13:14:13;0.10;;;0.10;;
3667;SDS011;24099;47.102;15.440;2023-04-01T13:16:52;0.93;;;0.20;;
3667;SDS011;24099;47.102;15.440;2023-04-01T13:19:25;0.10;;;0.10;;
3667;SDS011;24099;47.102;15.440;2023-04-01T13:22:00;0.00;;;0.00;;
3667;SDS011;24099;47.102;15.440;2023-04-01T13:24:40;0.10;;;0.10;;
3667;SDS011;24099;47.102;15.440;2023-04-01T13:27:14;0.10;;;0.10;;
3667;SDS011;24099;47.102;15.440;2023-04-01T13:29:54;0.10;;;0.10;;
3667;SDS011;24099;47.102;15.440;2023-04-01T13:32:34;0.10;;;0.10;;
3667;SDS011;24099;47.102;15.440;2023-04-01T13:35:13;0.10;;;0.10;;
3667;SDS011;24099;47.102;15.440;2023-04-01T13:37:52;0.15;;;0.15;;
3667;SDS011;24099;47.102;15.440;2023-04-01T13:40:36;0.28;;;0.20;;
3667;SDS011;24099;47.102;15.440;2023-04-01T13:43:14;0.20;;;0.20;;
3667;SDS011;24099;47.102;15.440;2023-04-01T13:46:03;0.17;;;0.17;;
3667;SDS011;24099;47.102;15.440;2023-04-01T13:48:48;0.10;;;0.10;;
3667;SDS011;24099;47.102;15.440;2023-04-01T13:51:33;0.10;;;0.10;;
3667;SDS011;24099;47.102;15.440;2023-04-01T13:54:38;0.20;;;0.20;;
3667;SDS011;24099;47.102;15.440;2023-04-01T13:57:36;0.10;;;0.10;;
3667;SDS011;24099;47.102;15.440;2023-04-01T14:00:30;0.55;;;0.13;;
3667;SDS011;24099;47.102;15.440;2023-04-01T14:03:30;0.10;;;0.10;;
3667;SDS011;24099;47.102;15.440;2023-04-01T14:06:16;0.10;;;0.10;;
3667;SDS011;24099;47.102;15.440;2023-04-01T14:12:14;4.03;;;0.20;;
3667;SDS011;24099;47.102;15.440;2023-04-01T14:14:59;1.35;;;0.10;;
3667;SDS011;24099;47.102;15.440;2023-04-01T14:17:50;0.00;;;0.00;;
3667;SDS011;24099;47.102;15.440;2023-04-01T14:20:38;0.10;;;0.10;;
3667;SDS011;24099;47.102;15.440;2023-04-01T14:23:12;0.10;;;0.10;;
3667;SDS011;24099;47.102;15.440;2023-04-01T14:26:10;0.10;;;0.10;;
3667;SDS011;24099;47.102;15.440;2023-04-01T14:28:51;0.10;;;0.10;;
3667;SDS011;24099;47.102;15.440;2023-04-01T14:31:37;0.20;;;0.10;;
3667;SDS011;24099;47.102;15.440;2023-04-01T14:34:22;0.47;;;0.22;;
3667;SDS011;24099;47.102;15.440;2023-04-01T14:37:03;0.20;;;0.10;;
3667;SDS011;24099;47.102;15.440;2023-04-01T14:45:58;0.13;;;0.13;;
3667;SDS011;24099;47.102;15.440;2023-04-01T14:48:50;0.20;;;0.20;;
3667;SDS011;24099;47.102;15.440;2023-04-01T14:51:23;2.28;;;0.20;;
3667;SDS011;24099;47.102;15.440;2023-04-01T14:54:04;0.10;;;0.10;;
3667;SDS011;24099;47.102;15.440;2023-04-01T14:56:36;0.17;;;0.17;;
3667;SDS011;24099;47.102;15.440;2023-04-01T14:59:10;0.10;;;0.10;;
3667;SDS011;24099;47.102;15.440;2023-04-01T15:01:45;0.10;;;0.10;;
3667;SDS011;24099;47.102;15.440;2023-04-01T15:04:28;0.10;;;0.10;;
3667;SDS011;24099;47.102;15.440;2023-04-01T15:07:15;0.10;;;0.10;;
3667;SDS011;24099;47.102;15.440;2023-04-01T15:10:20;0.20;;;0.10;;
3667;SDS011;24099;47.102;15.440;2023-04-01T15:13:10;0.25;;;0.13;;
3667;SDS011;24099;47.102;15.440;2023-04-01T15:15:45;0.10;;;0.10;;
3667;SDS011;24099;47.102;15.440;2023-04-01T15:18:27;0.10;;;0.10;;
3667;SDS011;24099;47.102;15.440;2023-04-01T15:21:11;0.40;;;0.10;;
3667;SDS011;24099;47.102;15.440;2023-04-01T15:23:56;0.10;;;0.10;;
3667;SDS011;24099;47.102;15.440;2023-04-01T15:29:32;0.52;;;0.20;;
3667;SDS011;24099;47.102;15.440;2023-04-01T15:32:24;0.10;;;0.10;;
3667;SDS011;24099;47.102;15.440;2023-04-01T15:34:59;0.05;;;0.05;;
3667;SDS011;24099;47.102;15.440;2023-04-01T15:37:43;0.35;;;0.20;;
3667;SDS011;24099;47.102;15.440;2023-04-01T15:40:20;0.10;;;0.10;;
3667;SDS011;24099;47.102;15.440;2023-04-01T15:43:04;0.20;;;0.20;;
3667;SDS011;24099;47.102;15.440;2023-04-01T15:45:49;0.10;;;0.10;;
3667;SDS011;24099;47.102;15.440;2023-04-01T15:48:31;0.10;;;0.10;;
3667;SDS011;24099;47.102;15.440;2023-04-01T15:51:12;0.25;;;0.17;;
3667;SDS011;24099;47.102;15.440;2023-04-01T15:53:54;0.10;;;0.10;;
3667;SDS011;24099;47.102;15.440;2023-04-01T15:56:51;0.25;;;0.25;;
3667;SDS011;24099;47.102;15.440;2023-04-01T15:59:44;0.45;;;0.10;;
3667;SDS011;24099;47.102;15.440;2023-04-01T16:02:40;0.10;;;0.10;;
3667;SDS011;24099;47.102;15.440;2023-04-01T16:05:20;0.50;;;0.38;;
3667;SDS011;24099;47.102;15.440;2023-04-01T16:08:00;1.75;;;0.30;;
3667;SDS011;24099;47.102;15.440;2023-04-01T16:10:58;0.10;;;0.10;;
3667;SDS011;24099;47.102;15.440;2023-04-01T16:13:40;0.80;;;0.10;;
3667;SDS011;24099;47.102;15.440;2023-04-01T16:16:22;0.20;;;0.20;;
3667;SDS011;24099;47.102;15.440;2023-04-01T16:19:12;0.10;;;0.10;;
3667;SDS011;24099;47.102;15.440;2023-04-01T16:22:00;0.20;;;0.20;;
3667;SDS011;24099;47.102;15.440;2023-04-01T16:24:34;0.30;;;0.20;;
3667;SDS011;24099;47.102;15.440;2023-04-01T16:27:09;0.20;;;0.20;;
3667;SDS011;24099;47.102;15.440;2023-04-01T16:29:45;0.20;;;0.20;;
3667;SDS011;24099;47.102;15.440;2023-04-01T16:35:15;0.98;;;0.47;;
3667;SDS011;24099;47.102;15.440;2023-04-01T16:37:54;0.10;;;0.10;;
3667;SDS011;24099;47.102;15.440;2023-04-01T16:40:33;1.73;;;0.28;;
3667;SDS011;24099;47.102;15.440;2023-04-01T16:43:11;2.38;;;0.35;;
3667;SDS011;24099;47.102;15.440;2023-04-01T16:45:51;0.45;;;0.22;;
3667;SDS011;24099;47.102;15.440;2023-04-01T16:48:52;0.30;;;0.30;;
3667;SDS011;24099;47.102;15.440;2023-04-01T16:51:32;0.20;;;0.20;;
3667;SDS011;24099;47.102;15.440;2023-04-01T16:54:10;0.25;;;0.25;;
3667;SDS011;24099;47.102;15.440;2023-04-01T16:56:45;0.57;;;0.40;;
3667;SDS011;24099;47.102;15.440;2023-04-01T16:59:18;0.40;;;0.40;;
3667;SDS011;24099;47.102;15.440;2023-04-01T17:01:55;0.20;;;0.20;;
3667;SDS011;24099;47.102;15.440;2023-04-01T17:04:33;0.73;;;0.43;;
3667;SDS011;24099;47.102;15.440;2023-04-01T17:07:20;0.22;;;0.20;;
3667;SDS011;24099;47.102;15.440;2023-04-01T17:10:01;0.15;;;0.15;;
3667;SDS011;24099;47.102;15.440;2023-04-01T17:12:59;0.98;;;0.25;;
3667;SDS011;24099;47.102;15.440;2023-04-01T17:15:50;0.20;;;0.20;;
3667;SDS011;24099;47.102;15.440;2023-04-01T17:18:28;0.22;;;0.22;;
3667;SDS011;24099;47.102;15.440;2023-04-01T17:21:09;0.45;;;0.30;;
3667;SDS011;24099;47.102;15.440;2023-04-01T17:23:43;0.47;;;0.30;;
3667;SDS011;24099;47.102;15.440;2023-04-01T17:26:18;1.45;;;1.00;;
3667;SDS011;24099;47.102;15.440;2023-04-01T17:28:53;1.08;;;0.50;;
3667;SDS011;24099;47.102;15.440;2023-04-01T17:31:33;0.65;;;0.55;;
3667;SDS011;24099;47.102;15.440;2023-04-01T17:34:23;2.95;;;1.85;;
3667;SDS011;24099;47.102;15.440;2023-04-01T17:37:09;2.80;;;2.05;;
3667;SDS011;24099;47.102;15.440;2023-04-01T17:39:57;1.20;;;1.10;;
3667;SDS011;24099;47.102;15.440;2023-04-01T17:42:40;1.27;;;1.17;;
3667;SDS011;24099;47.102;15.440;2023-04-01T17:45:16;0.47;;;0.45;;
3667;SDS011;24099;47.102;15.440;2023-04-01T17:47:58;0.28;;;0.28;;
3667;SDS011;24099;47.102;15.440;2023-04-01T17:50:45;0.52;;;0.30;;
3667;SDS011;24099;47.102;15.440;2023-04-01T17:53:27;0.38;;;0.38;;
3667;SDS011;24099;47.102;15.440;2023-04-01T17:56:03;0.82;;;0.40;;
3667;SDS011;24099;47.102;15.440;2023-04-01T17:58:42;0.30;;;0.30;;
3667;SDS011;24099;47.102;15.440;2023-04-01T18:01:18;0.20;;;0.20;;
3667;SDS011;24099;47.102;15.440;2023-04-01T18:04:03;0.22;;;0.22;;